Newport Municipal Airport Newport US
ICAO: KONP
IATA: ONP
Category: Medium
Scheduled Services: No

Elevation: 160 ft
TransAlt. 18000 ft.

Airport Communications:
AWOS 3:133.9
SEATTLE CNTR:125.8
CTAF/UNICOM:122.8

KONP Zoom In..

Runways:

(A) RW 02 length 3001 ft width 75 ft
---- / hdg 18

(B) RW 16 length 5398 ft width 150 ft
ILS 111.50 / hdg 158

(C) RW 20 length 3001 ft width 75 ft
---- / hdg 198

(D) RW 34 length 5398 ft width 150 ft
---- / hdg 338

Location; KONP
Day. 04 / Time. 14.15 Zulu
* Altimeter: 29.83
* Temperature: 01° c. 33.8°f.
* Wind from: 090° Speed 07 kn.
Dewpoint: 01° c.
Visibility: 10 Statute Miles.
Clouds: Overcast 1000 ft.

KONP 041415Z AUTO 09007KT 10SM OVC100 01/01 A2983 RMK AO2


Wind From 090°
Speed 07 kn.

 
 
jpsmedia worldairports.se 2020   terms of use